createdAt,value
2019-03-30T17:02:13.329Z,5.80
2019-03-30T17:03:13.307Z,4.60
2019-03-30T17:05:17.294Z,4.50
2019-03-30T17:06:17.274Z,6.10
2019-03-30T17:08:21.241Z,4.50
2019-03-30T17:09:21.237Z,3.50
2019-03-30T17:11:25.718Z,4.70
2019-03-30T17:12:25.695Z,5.70
2019-03-30T17:13:25.698Z,4.50
2019-03-30T17:14:25.694Z,4.90
2019-03-30T17:15:25.694Z,3.70
2019-03-30T17:16:25.692Z,4.20
2019-03-30T17:17:25.697Z,4.70
2019-03-30T17:18:25.691Z,4.40
2019-03-30T17:19:25.691Z,3.80
2019-03-30T17:20:25.689Z,4.10
2019-03-30T17:21:25.687Z,3.10
2019-03-30T17:22:25.697Z,4.40
2019-03-30T17:23:25.690Z,3.20
2019-03-30T17:24:25.685Z,5.90
2019-03-30T17:25:25.683Z,6.90
2019-03-30T17:26:25.688Z,3.60
2019-03-30T17:27:25.696Z,4.90
2019-03-30T17:28:25.685Z,3.90
2019-03-30T17:29:25.687Z,4.10
2019-03-30T17:30:25.687Z,6.30
2019-03-30T17:31:25.683Z,3.90
2019-03-30T17:32:25.681Z,5.00
2019-03-30T17:33:25.680Z,4.40
2019-03-30T17:34:25.676Z,3.30
2019-03-30T17:35:25.679Z,3.80
2019-03-30T17:36:25.673Z,5.30
2019-03-30T17:37:25.728Z,4.50
2019-03-30T17:38:25.670Z,7.00
2019-03-30T17:39:25.673Z,5.80
2019-03-30T17:40:25.665Z,8.60
2019-03-30T17:41:25.664Z,5.10
2019-03-30T17:42:25.671Z,4.90
2019-03-30T17:43:25.667Z,5.10
2019-03-30T17:44:25.669Z,5.20
2019-03-30T17:45:25.663Z,4.00
2019-03-30T17:46:25.660Z,4.50
2019-03-30T17:47:25.657Z,5.80
2019-03-30T17:48:25.654Z,6.20
2019-03-30T17:49:25.652Z,5.60
2019-03-30T17:50:25.652Z,4.10
2019-03-30T17:51:25.654Z,4.40
2019-03-30T17:52:25.645Z,4.60
2019-03-30T17:53:25.644Z,3.90
2019-03-30T17:54:25.652Z,4.80
2019-03-30T17:55:33.468Z,4.90
2019-03-30T17:56:25.639Z,6.30
2019-03-30T17:57:25.637Z,5.20
2019-03-30T17:58:25.639Z,5.40
2019-03-30T17:59:25.631Z,4.50
2019-03-30T18:00:25.629Z,5.00
2019-03-30T18:01:25.632Z,4.40
2019-03-30T18:02:25.627Z,5.10
2019-03-30T18:03:25.628Z,4.90
2019-03-30T18:04:25.629Z,5.40
2019-03-30T18:05:25.619Z,5.10
2019-03-30T18:06:25.622Z,5.50
2019-03-30T18:07:25.616Z,5.90
2019-03-30T18:08:25.610Z,3.90
2019-03-30T18:09:25.622Z,4.90
2019-03-30T18:10:25.613Z,7.70
2019-03-30T18:11:25.607Z,5.00
2019-03-30T18:12:25.601Z,6.30
2019-03-30T18:13:25.602Z,6.00
2019-03-30T18:14:25.595Z,8.20
2019-03-30T18:15:25.598Z,6.20
2019-03-30T18:16:25.596Z,7.10
2019-03-30T18:17:25.589Z,8.20
2019-03-30T18:18:25.596Z,7.20
2019-03-30T18:19:25.602Z,6.40
2019-03-30T18:20:25.582Z,6.80
2019-03-30T18:21:25.578Z,4.30
2019-03-30T18:22:25.632Z,5.50
2019-03-30T18:23:25.572Z,5.10
2019-03-30T18:24:25.574Z,6.20
2019-03-30T18:25:25.569Z,5.10
2019-03-30T18:26:25.565Z,6.10
2019-03-30T18:27:25.562Z,10.80
2019-03-30T18:28:27.327Z,6.20
2019-03-30T18:29:25.559Z,6.10
2019-03-30T18:30:25.555Z,6.10
2019-03-30T18:31:25.549Z,6.90
2019-03-30T18:32:25.546Z,7.20
2019-03-30T18:33:25.542Z,7.20
2019-03-30T18:34:25.545Z,5.90
2019-03-30T18:35:25.539Z,8.30
2019-03-30T18:36:25.538Z,5.90
2019-03-30T18:37:25.532Z,6.80
2019-03-30T18:38:25.529Z,7.10
2019-03-30T18:39:25.525Z,6.60
2019-03-30T18:40:25.523Z,8.70
2019-03-30T18:41:25.516Z,7.10
2019-03-30T18:42:25.513Z,7.90
2019-03-30T18:43:25.515Z,9.00
2019-03-30T18:44:25.540Z,7.00
2019-03-30T18:45:25.514Z,8.40
2019-03-30T18:46:25.499Z,8.10
2019-03-30T18:47:25.496Z,10.80
2019-03-30T18:48:25.495Z,8.70
2019-03-30T18:49:25.500Z,9.00
2019-03-30T18:50:25.486Z,10.70
2019-03-30T18:51:25.481Z,9.90
2019-03-30T18:52:25.485Z,9.70
2019-03-30T18:53:25.479Z,8.70
2019-03-30T18:54:25.474Z,11.10
2019-03-30T18:55:25.469Z,8.90
2019-03-30T18:56:27.851Z,11.60
2019-03-30T18:57:25.473Z,11.00
2019-03-30T18:58:25.535Z,10.70
2019-03-30T18:59:25.458Z,12.30
2019-03-30T19:00:25.453Z,11.70
2019-03-30T19:01:25.444Z,16.70
2019-03-30T19:02:25.451Z,16.80
2019-03-30T19:03:25.443Z,17.50
2019-03-30T19:04:25.436Z,17.80
2019-03-30T19:05:25.433Z,19.10
2019-03-30T19:06:25.423Z,22.80
2019-03-30T19:07:25.424Z,23.90
2019-03-30T19:08:25.421Z,25.00
2019-03-30T19:09:26.186Z,26.80
2019-03-30T19:10:25.411Z,27.30
2019-03-30T19:11:25.405Z,34.50
2019-03-30T19:12:25.406Z,34.10
2019-03-30T19:13:25.403Z,31.20
2019-03-30T19:14:25.398Z,31.20
2019-03-30T19:15:25.392Z,23.30
2019-03-30T19:16:25.389Z,19.20
2019-03-30T19:17:25.381Z,19.10
2019-03-30T19:18:25.379Z,19.00
2019-03-30T19:19:25.403Z,15.90
2019-03-30T19:20:25.378Z,15.90
2019-03-30T19:21:25.370Z,14.00
2019-03-30T19:22:25.366Z,12.30
2019-03-30T19:23:25.358Z,12.40
2019-03-30T19:24:25.390Z,13.00
2019-03-30T19:25:25.349Z,11.90
2019-03-30T19:26:25.345Z,13.70
2019-03-30T19:27:25.341Z,14.00
2019-03-30T19:28:25.337Z,18.50
2019-03-30T19:29:25.336Z,20.20
2019-03-30T19:30:25.329Z,23.00
2019-03-30T19:31:25.324Z,21.70
2019-03-30T19:32:25.320Z,23.70
2019-03-30T19:33:25.321Z,17.50
2019-03-30T19:34:25.317Z,17.40
2019-03-30T19:35:25.309Z,16.60
2019-03-30T19:36:25.306Z,17.10
2019-03-30T19:37:25.301Z,16.60
2019-03-30T19:38:25.299Z,15.70
2019-03-30T19:39:25.298Z,13.80
2019-03-30T19:40:25.289Z,12.00
2019-03-30T19:41:25.281Z,15.40
2019-03-30T19:42:25.286Z,11.60
2019-03-30T19:43:25.277Z,12.90
2019-03-30T19:44:25.266Z,11.90
2019-03-30T19:45:25.267Z,10.10
2019-03-30T19:46:26.762Z,11.10
2019-03-30T19:47:25.264Z,8.60
2019-03-30T19:48:25.251Z,10.90
2019-03-30T19:49:25.255Z,10.20
2019-03-30T19:50:25.243Z,9.30
2019-03-30T19:51:25.237Z,8.10
2019-03-30T19:52:38.961Z,9.90
2019-03-30T19:53:25.232Z,7.10
2019-03-30T19:54:25.221Z,7.20
2019-03-30T19:55:25.226Z,9.10
2019-03-30T19:56:25.217Z,7.20
2019-03-30T19:57:27.759Z,8.30
2019-03-30T19:58:25.203Z,9.00
2019-03-30T19:59:25.198Z,8.50
2019-03-30T20:00:25.197Z,8.70
2019-03-30T20:01:25.193Z,8.40
2019-03-30T20:02:25.188Z,6.50
2019-03-30T20:03:25.185Z,7.30
2019-03-30T20:04:25.174Z,8.70
2019-03-30T20:05:25.168Z,6.60
2019-03-30T20:06:25.163Z,8.50
2019-03-30T20:07:25.161Z,7.00
2019-03-30T20:08:25.159Z,6.80
2019-03-30T20:09:25.151Z,6.20
2019-03-30T20:10:25.153Z,7.70
2019-03-30T20:11:25.140Z,8.90
2019-03-30T20:12:25.225Z,6.60
2019-03-30T20:13:25.135Z,6.60
2019-03-30T20:14:25.134Z,7.30
2019-03-30T20:15:25.124Z,7.60
2019-03-30T20:16:25.116Z,8.50
2019-03-30T20:17:25.117Z,8.60
2019-03-30T20:18:25.111Z,8.20
2019-03-30T20:19:25.110Z,6.60
2019-03-30T20:20:25.101Z,6.40
2019-03-30T20:21:25.094Z,8.30
2019-03-30T20:22:25.090Z,6.60
2019-03-30T20:23:25.084Z,9.00
2019-03-30T20:24:25.076Z,7.60
2019-03-30T20:25:26.199Z,6.90
2019-03-30T20:26:25.068Z,6.50
2019-03-30T20:27:25.064Z,7.80
2019-03-30T20:28:25.062Z,7.30
2019-03-30T20:29:25.934Z,6.80
2019-03-30T20:30:25.044Z,8.10
2019-03-30T20:31:25.045Z,7.80
2019-03-30T20:32:25.033Z,7.90
2019-03-30T20:33:25.028Z,7.70
2019-03-30T20:34:25.022Z,8.60
2019-03-30T20:35:25.020Z,6.50
2019-03-30T20:36:25.013Z,6.10
2019-03-30T20:37:25.009Z,8.30
2019-03-30T20:38:25.004Z,7.40
2019-03-30T20:39:24.993Z,8.80
2019-03-30T20:40:24.987Z,7.80
2019-03-30T20:41:24.989Z,7.40
2019-03-30T20:42:24.989Z,7.40
2019-03-30T20:43:24.978Z,6.90
2019-03-30T20:44:24.966Z,7.20
2019-03-30T20:45:24.964Z,6.80
2019-03-30T20:46:24.962Z,7.40
2019-03-30T20:47:24.950Z,6.50
2019-03-30T20:48:24.946Z,8.10
2019-03-30T20:49:24.938Z,9.00
2019-03-30T20:50:24.937Z,9.00
2019-03-30T20:51:24.925Z,8.10
2019-03-30T20:52:24.929Z,9.10
2019-03-30T20:53:24.917Z,8.20
2019-03-30T20:54:24.910Z,7.20
2019-03-30T20:55:24.908Z,9.40
2019-03-30T20:56:24.895Z,10.30
2019-03-30T20:57:24.899Z,8.10
2019-03-30T20:58:24.889Z,10.60
2019-03-30T20:59:39.025Z,8.60
2019-03-30T21:00:24.872Z,8.70
2019-03-30T21:01:24.865Z,11.50
2019-03-30T21:02:24.864Z,8.80
2019-03-30T21:03:24.855Z,8.70
2019-03-30T21:04:24.849Z,8.30
2019-03-30T21:05:24.850Z,7.90
2019-03-30T21:06:24.838Z,9.50
2019-03-30T21:07:24.838Z,7.90
2019-03-30T21:08:24.824Z,8.30
2019-03-30T21:09:24.819Z,6.90
2019-03-30T21:10:24.826Z,9.20
2019-03-30T21:11:24.805Z,9.30
2019-03-30T21:12:24.804Z,10.10
2019-03-30T21:13:24.806Z,9.30
2019-03-30T21:14:24.788Z,9.00
2019-03-30T21:15:24.784Z,10.10
2019-03-30T21:16:24.781Z,11.80
2019-03-30T21:17:24.777Z,9.40
2019-03-30T21:18:24.769Z,8.90
2019-03-30T21:19:24.763Z,9.10
2019-03-30T21:20:24.759Z,9.40
2019-03-30T21:21:24.752Z,8.50
2019-03-30T21:22:24.738Z,6.90
2019-03-30T21:23:24.737Z,11.90
2019-03-30T21:24:24.733Z,7.40
2019-03-30T21:25:24.727Z,8.10
2019-03-30T21:26:24.715Z,8.40
2019-03-30T21:27:24.714Z,6.50
2019-03-30T21:28:24.711Z,6.00
2019-03-30T21:29:24.698Z,8.80
2019-03-30T21:30:24.696Z,11.40
2019-03-30T21:31:24.688Z,7.60
2019-03-30T21:32:24.683Z,6.10
2019-03-30T21:33:24.678Z,7.10
2019-03-30T21:34:24.669Z,8.90
2019-03-30T21:35:24.663Z,10.40
2019-03-30T21:36:24.658Z,7.40
2019-03-30T21:37:24.648Z,7.90
2019-03-30T21:38:24.648Z,7.00
2019-03-30T21:39:24.635Z,8.90
2019-03-30T21:40:24.633Z,8.30
2019-03-30T21:41:24.628Z,7.20
2019-03-30T21:42:24.622Z,8.70
2019-03-30T21:43:24.611Z,8.70
2019-03-30T21:44:24.607Z,11.70
2019-03-30T21:45:24.607Z,8.00
2019-03-30T21:46:24.595Z,9.10
2019-03-30T21:47:24.585Z,9.20
2019-03-30T21:48:24.584Z,8.40
2019-03-30T21:49:24.591Z,9.60
2019-03-30T21:50:24.564Z,8.40
2019-03-30T21:51:24.563Z,7.60
2019-03-30T21:52:24.555Z,7.50
2019-03-30T21:53:24.555Z,7.90
2019-03-30T21:54:24.544Z,8.60
2019-03-30T21:55:24.538Z,8.60
2019-03-30T21:56:24.532Z,7.90
2019-03-30T21:57:24.521Z,8.60
2019-03-30T21:58:24.519Z,7.70
2019-03-30T21:59:24.507Z,8.00
2019-03-30T22:00:24.505Z,8.90
2019-03-30T22:01:24.500Z,8.40
2019-03-30T22:02:24.495Z,6.60
2019-03-30T22:03:24.486Z,7.10
2019-03-30T22:04:24.475Z,7.20
2019-03-30T22:05:24.469Z,9.70
2019-03-30T22:06:24.468Z,7.30
2019-03-30T22:07:24.456Z,9.00
2019-03-30T22:08:24.454Z,8.40
2019-03-30T22:09:24.447Z,9.10
2019-03-30T22:10:24.437Z,8.10
2019-03-30T22:11:24.434Z,9.60
2019-03-30T22:12:24.424Z,8.00
2019-03-30T22:13:24.422Z,7.80
2019-03-30T22:14:24.417Z,8.60
2019-03-30T22:15:24.405Z,7.60
2019-03-30T22:16:24.395Z,6.00
2019-03-30T22:17:24.389Z,8.30
2019-03-30T22:18:24.383Z,7.50
2019-03-30T22:19:24.377Z,10.00
2019-03-30T22:20:24.376Z,10.20
2019-03-30T22:21:24.369Z,7.40
2019-03-30T22:22:24.358Z,7.70
2019-03-30T22:23:24.363Z,7.40
2019-03-30T22:24:24.342Z,6.60
2019-03-30T22:25:24.336Z,9.30
2019-03-30T22:26:24.904Z,8.60
2019-03-30T22:27:24.324Z,7.60
2019-03-30T22:28:24.315Z,8.20
2019-03-30T22:29:24.310Z,10.40
2019-03-30T22:30:25.442Z,7.40
2019-03-30T22:31:24.301Z,9.20
2019-03-30T22:32:24.291Z,7.20
2019-03-30T22:33:24.294Z,7.50
2019-03-30T22:34:24.278Z,8.00
2019-03-30T22:35:24.274Z,7.20
2019-03-30T22:36:24.264Z,7.90
2019-03-30T22:37:24.260Z,8.60
2019-03-30T22:38:24.246Z,9.90
2019-03-30T22:39:24.267Z,7.80
2019-03-30T22:40:24.239Z,9.80
2019-03-30T22:41:24.231Z,9.50
2019-03-30T22:42:24.222Z,9.10
2019-03-30T22:43:24.217Z,7.70
2019-03-30T22:44:24.213Z,8.70
2019-03-30T22:45:24.197Z,8.00
2019-03-30T22:46:24.200Z,8.90
2019-03-30T22:47:24.183Z,9.00
2019-03-30T22:48:24.184Z,10.40
2019-03-30T22:49:24.162Z,8.60
2019-03-30T22:50:24.162Z,9.40
2019-03-30T22:51:24.159Z,6.80
2019-03-30T22:52:24.149Z,11.00
2019-03-30T22:53:24.150Z,10.80
2019-03-30T22:54:24.138Z,11.20
2019-03-30T22:55:24.131Z,8.90
2019-03-30T22:56:24.122Z,7.00
2019-03-30T22:57:24.116Z,9.50
2019-03-30T22:58:24.108Z,7.30
2019-03-30T22:59:24.100Z,7.80
2019-03-30T23:00:38.120Z,10.00
2019-03-30T23:01:24.111Z,10.90
2019-03-30T23:02:24.080Z,9.70
2019-03-30T23:03:24.075Z,10.00
2019-03-30T23:04:24.068Z,8.10
2019-03-30T23:05:24.055Z,10.50
2019-03-30T23:06:24.048Z,10.10
2019-03-30T23:07:24.043Z,10.30
2019-03-30T23:08:24.038Z,11.60
2019-03-30T23:09:24.031Z,10.40
2019-03-30T23:10:24.025Z,10.20
2019-03-30T23:11:24.022Z,10.90
2019-03-30T23:12:24.004Z,13.10
2019-03-30T23:13:23.998Z,8.50
2019-03-30T23:14:23.993Z,9.40
2019-03-30T23:15:23.986Z,12.70
2019-03-30T23:16:23.981Z,8.60
2019-03-30T23:17:23.977Z,10.30
2019-03-30T23:18:23.965Z,10.20
2019-03-30T23:19:23.959Z,9.80
2019-03-30T23:20:23.946Z,11.90
2019-03-30T23:21:23.944Z,11.30
2019-03-30T23:22:23.940Z,10.70
2019-03-30T23:23:23.930Z,8.70
2019-03-30T23:24:23.918Z,12.90
2019-03-30T23:25:23.915Z,10.10
2019-03-30T23:26:23.912Z,9.70
2019-03-30T23:27:23.896Z,11.10
2019-03-30T23:28:23.894Z,9.10
2019-03-30T23:29:23.882Z,11.40
2019-03-30T23:30:23.879Z,9.20
2019-03-30T23:31:23.869Z,8.40
2019-03-30T23:32:23.859Z,9.60
2019-03-30T23:33:23.854Z,8.80
2019-03-30T23:34:23.846Z,10.10
2019-03-30T23:35:23.842Z,10.80
2019-03-30T23:36:23.835Z,8.50
2019-03-30T23:37:23.822Z,10.10
2019-03-30T23:38:23.819Z,10.70
2019-03-30T23:39:23.811Z,9.90
2019-03-30T23:40:23.800Z,10.20
2019-03-30T23:41:23.799Z,9.20
2019-03-30T23:42:23.791Z,9.00
2019-03-30T23:43:23.782Z,8.70
2019-03-30T23:44:23.775Z,9.10
2019-03-30T23:45:23.763Z,10.00
2019-03-30T23:46:23.758Z,8.50
2019-03-30T23:47:23.748Z,9.80
2019-03-30T23:48:23.738Z,11.10
2019-03-30T23:49:23.735Z,10.20
2019-03-30T23:50:23.747Z,10.70
2019-03-30T23:51:23.724Z,8.80
2019-03-30T23:52:23.710Z,9.80
2019-03-30T23:53:23.705Z,8.00
2019-03-30T23:54:23.697Z,10.00
2019-03-30T23:55:23.693Z,9.10
2019-03-30T23:56:23.681Z,10.50
2019-03-30T23:57:23.673Z,10.70
2019-03-30T23:58:23.668Z,9.40
2019-03-30T23:59:23.660Z,9.30
